<?xml version="1.0" encoding="UTF-8" standalone="no" ?>
<gpx xmlns="http://www.topografix.com/GPX/1/1" xmlns:xsi="http://www.w3.org/2001/XMLSchema-instance" xsi:schemaLocation="http://www.topografix.com/GPX/1/1 http://www.topografix.com/GPX/1/1/gpx.xsd" version="1.1" creator="VisuGPX - https://www.visugpx.com">
  <metadata>
    <name>[BASE Jump] Pilier Sud</name>
    <desc><![CDATA[A n'utiliser qu'avec un parachute ! ]]></desc>
  </metadata>
  <trk>
    <name><![CDATA[Pilier Sud]]></name>
    <extensions>
      <line xmlns="http://www.topografix.com/GPX/gpx_style/0/2">
        <color>0000FF</color>
        <width>4</width>
      </line>
    </extensions>
    <trkseg>
      <trkpt lat="45.31042" lon="5.88822">
        <ele>1013.23</ele>
        <time>2024-11-06T14:48:14Z</time>
      </trkpt>
      <trkpt lat="45.3104" lon="5.88833">
        <ele>1017.35</ele>
        <time>2024-11-06T14:48:15Z</time>
      </trkpt>
      <trkpt lat="45.31037" lon="5.88848">
        <ele>1025.11</ele>
        <time>2024-11-06T14:48:19Z</time>
      </trkpt>
      <trkpt lat="45.31038" lon="5.88855">
        <ele>1022.22</ele>
        <time>2024-11-06T14:48:24Z</time>
      </trkpt>
      <trkpt lat="45.31039" lon="5.88862">
        <ele>1022.6</ele>
        <time>2024-11-06T14:48:28Z</time>
      </trkpt>
      <trkpt lat="45.31041" lon="5.88868">
        <ele>1022.85</ele>
        <time>2024-11-06T14:48:32Z</time>
      </trkpt>
      <trkpt lat="45.31043" lon="5.88874">
        <ele>1024.6</ele>
        <time>2024-11-06T14:48:36Z</time>
      </trkpt>
      <trkpt lat="45.31042" lon="5.88881">
        <ele>1024.31</ele>
        <time>2024-11-06T14:48:40Z</time>
      </trkpt>
      <trkpt lat="45.31043" lon="5.88889">
        <ele>1026.33</ele>
        <time>2024-11-06T14:48:44Z</time>
      </trkpt>
      <trkpt lat="45.31044" lon="5.88895">
        <ele>1026</ele>
        <time>2024-11-06T14:48:48Z</time>
      </trkpt>
      <trkpt lat="45.31045" lon="5.88901">
        <ele>1024.79</ele>
        <time>2024-11-06T14:48:52Z</time>
      </trkpt>
      <trkpt lat="45.31046" lon="5.88908">
        <ele>1024.9</ele>
        <time>2024-11-06T14:48:56Z</time>
      </trkpt>
      <trkpt lat="45.31049" lon="5.88914">
        <ele>1023.59</ele>
        <time>2024-11-06T14:49:01Z</time>
      </trkpt>
      <trkpt lat="45.31051" lon="5.88921">
        <ele>1021.82</ele>
        <time>2024-11-06T14:49:06Z</time>
      </trkpt>
      <trkpt lat="45.31053" lon="5.88927">
        <ele>1021.98</ele>
        <time>2024-11-06T14:49:10Z</time>
      </trkpt>
      <trkpt lat="45.31054" lon="5.88933">
        <ele>1020.98</ele>
        <time>2024-11-06T14:49:15Z</time>
      </trkpt>
      <trkpt lat="45.31056" lon="5.8894">
        <ele>1022.32</ele>
        <time>2024-11-06T14:49:18Z</time>
      </trkpt>
      <trkpt lat="45.31057" lon="5.88947">
        <ele>1023.29</ele>
        <time>2024-11-06T14:49:22Z</time>
      </trkpt>
      <trkpt lat="45.31059" lon="5.88953">
        <ele>1022.9</ele>
        <time>2024-11-06T14:49:27Z</time>
      </trkpt>
      <trkpt lat="45.31062" lon="5.8896">
        <ele>1023.35</ele>
        <time>2024-11-06T14:49:32Z</time>
      </trkpt>
      <trkpt lat="45.31064" lon="5.88967">
        <ele>1023.99</ele>
        <time>2024-11-06T14:49:36Z</time>
      </trkpt>
      <trkpt lat="45.31068" lon="5.88973">
        <ele>1023.93</ele>
        <time>2024-11-06T14:49:41Z</time>
      </trkpt>
      <trkpt lat="45.3107" lon="5.88979">
        <ele>1023.8</ele>
        <time>2024-11-06T14:49:45Z</time>
      </trkpt>
      <trkpt lat="45.31073" lon="5.88983">
        <ele>1023.4</ele>
        <time>2024-11-06T14:49:49Z</time>
      </trkpt>
      <trkpt lat="45.31077" lon="5.88989">
        <ele>1022.44</ele>
        <time>2024-11-06T14:49:54Z</time>
      </trkpt>
      <trkpt lat="45.31081" lon="5.88994">
        <ele>1021.56</ele>
        <time>2024-11-06T14:49:59Z</time>
      </trkpt>
      <trkpt lat="45.31083" lon="5.89">
        <ele>1021.89</ele>
        <time>2024-11-06T14:50:03Z</time>
      </trkpt>
      <trkpt lat="45.31086" lon="5.89005">
        <ele>1021.02</ele>
        <time>2024-11-06T14:50:07Z</time>
      </trkpt>
      <trkpt lat="45.31087" lon="5.89012">
        <ele>1021.86</ele>
        <time>2024-11-06T14:50:11Z</time>
      </trkpt>
      <trkpt lat="45.31088" lon="5.89018">
        <ele>1023.17</ele>
        <time>2024-11-06T14:50:15Z</time>
      </trkpt>
      <trkpt lat="45.31092" lon="5.89014">
        <ele>1021.93</ele>
        <time>2024-11-06T14:50:18Z</time>
      </trkpt>
      <trkpt lat="45.31094" lon="5.89021">
        <ele>1021.01</ele>
        <time>2024-11-06T14:50:23Z</time>
      </trkpt>
      <trkpt lat="45.31095" lon="5.89027">
        <ele>1022.44</ele>
        <time>2024-11-06T14:50:26Z</time>
      </trkpt>
      <trkpt lat="45.31097" lon="5.89035">
        <ele>1022.17</ele>
        <time>2024-11-06T14:50:30Z</time>
      </trkpt>
      <trkpt lat="45.31098" lon="5.89043">
        <ele>1022.47</ele>
        <time>2024-11-06T14:50:34Z</time>
      </trkpt>
      <trkpt lat="45.311" lon="5.8905">
        <ele>1022.17</ele>
        <time>2024-11-06T14:50:38Z</time>
      </trkpt>
      <trkpt lat="45.31101" lon="5.89056">
        <ele>1021.96</ele>
        <time>2024-11-06T14:50:42Z</time>
      </trkpt>
      <trkpt lat="45.31103" lon="5.89063">
        <ele>1020.96</ele>
        <time>2024-11-06T14:50:47Z</time>
      </trkpt>
      <trkpt lat="45.31104" lon="5.8907">
        <ele>1020.6</ele>
        <time>2024-11-06T14:50:51Z</time>
      </trkpt>
      <trkpt lat="45.31106" lon="5.89077">
        <ele>1020.63</ele>
        <time>2024-11-06T14:50:56Z</time>
      </trkpt>
      <trkpt lat="45.31108" lon="5.89084">
        <ele>1020.48</ele>
        <time>2024-11-06T14:51:01Z</time>
      </trkpt>
      <trkpt lat="45.31111" lon="5.89091">
        <ele>1020.21</ele>
        <time>2024-11-06T14:51:06Z</time>
      </trkpt>
      <trkpt lat="45.31113" lon="5.89098">
        <ele>1020.51</ele>
        <time>2024-11-06T14:51:11Z</time>
      </trkpt>
      <trkpt lat="45.31113" lon="5.89106">
        <ele>1019.76</ele>
        <time>2024-11-06T14:51:16Z</time>
      </trkpt>
      <trkpt lat="45.31111" lon="5.89113">
        <ele>1018.35</ele>
        <time>2024-11-06T14:51:21Z</time>
      </trkpt>
      <trkpt lat="45.3111" lon="5.89121">
        <ele>1019.02</ele>
        <time>2024-11-06T14:51:25Z</time>
      </trkpt>
      <trkpt lat="45.31109" lon="5.89128">
        <ele>1019.4</ele>
        <time>2024-11-06T14:51:29Z</time>
      </trkpt>
      <trkpt lat="45.31109" lon="5.89135">
        <ele>1019.13</ele>
        <time>2024-11-06T14:51:33Z</time>
      </trkpt>
      <trkpt lat="45.31109" lon="5.89142">
        <ele>1018.74</ele>
        <time>2024-11-06T14:51:37Z</time>
      </trkpt>
      <trkpt lat="45.31109" lon="5.89149">
        <ele>1017.5</ele>
        <time>2024-11-06T14:51:41Z</time>
      </trkpt>
      <trkpt lat="45.31109" lon="5.89155">
        <ele>1017.16</ele>
        <time>2024-11-06T14:51:45Z</time>
      </trkpt>
      <trkpt lat="45.3111" lon="5.89163">
        <ele>1017.25</ele>
        <time>2024-11-06T14:51:49Z</time>
      </trkpt>
      <trkpt lat="45.31111" lon="5.8917">
        <ele>1017.09</ele>
        <time>2024-11-06T14:51:53Z</time>
      </trkpt>
      <trkpt lat="45.31112" lon="5.89176">
        <ele>1016.19</ele>
        <time>2024-11-06T14:51:57Z</time>
      </trkpt>
      <trkpt lat="45.31114" lon="5.89183">
        <ele>1015.24</ele>
        <time>2024-11-06T14:52:01Z</time>
      </trkpt>
      <trkpt lat="45.31116" lon="5.89189">
        <ele>1014.29</ele>
        <time>2024-11-06T14:52:05Z</time>
      </trkpt>
      <trkpt lat="45.31117" lon="5.89196">
        <ele>1013.47</ele>
        <time>2024-11-06T14:52:09Z</time>
      </trkpt>
      <trkpt lat="45.31117" lon="5.89204">
        <ele>1014.71</ele>
        <time>2024-11-06T14:52:13Z</time>
      </trkpt>
      <trkpt lat="45.31116" lon="5.89211">
        <ele>1014.66</ele>
        <time>2024-11-06T14:52:17Z</time>
      </trkpt>
      <trkpt lat="45.31114" lon="5.89217">
        <ele>1013.43</ele>
        <time>2024-11-06T14:52:21Z</time>
      </trkpt>
      <trkpt lat="45.31111" lon="5.89223">
        <ele>1012.3</ele>
        <time>2024-11-06T14:52:26Z</time>
      </trkpt>
      <trkpt lat="45.31108" lon="5.89228">
        <ele>1010.37</ele>
        <time>2024-11-06T14:52:30Z</time>
      </trkpt>
      <trkpt lat="45.31105" lon="5.89233">
        <ele>1007.87</ele>
        <time>2024-11-06T14:52:34Z</time>
      </trkpt>
      <trkpt lat="45.31102" lon="5.89237">
        <ele>1008.94</ele>
        <time>2024-11-06T14:52:38Z</time>
      </trkpt>
      <trkpt lat="45.31099" lon="5.89243">
        <ele>1008.02</ele>
        <time>2024-11-06T14:52:43Z</time>
      </trkpt>
      <trkpt lat="45.31094" lon="5.89242">
        <ele>1008.06</ele>
        <time>2024-11-06T14:52:47Z</time>
      </trkpt>
      <trkpt lat="45.31089" lon="5.89242">
        <ele>1007.99</ele>
        <time>2024-11-06T14:52:52Z</time>
      </trkpt>
      <trkpt lat="45.31085" lon="5.89246">
        <ele>1008.01</ele>
        <time>2024-11-06T14:52:57Z</time>
      </trkpt>
      <trkpt lat="45.31081" lon="5.89251">
        <ele>1008.23</ele>
        <time>2024-11-06T14:53:01Z</time>
      </trkpt>
      <trkpt lat="45.31077" lon="5.89253">
        <ele>1007.87</ele>
        <time>2024-11-06T14:53:06Z</time>
      </trkpt>
      <trkpt lat="45.31073" lon="5.89258">
        <ele>1006.02</ele>
        <time>2024-11-06T14:53:12Z</time>
      </trkpt>
      <trkpt lat="45.31069" lon="5.89264">
        <ele>1004.26</ele>
        <time>2024-11-06T14:53:17Z</time>
      </trkpt>
      <trkpt lat="45.31066" lon="5.89268">
        <ele>1003.01</ele>
        <time>2024-11-06T14:53:22Z</time>
      </trkpt>
      <trkpt lat="45.31062" lon="5.89274">
        <ele>1001.68</ele>
        <time>2024-11-06T14:53:27Z</time>
      </trkpt>
      <trkpt lat="45.31059" lon="5.89279">
        <ele>999.78</ele>
        <time>2024-11-06T14:53:32Z</time>
      </trkpt>
      <trkpt lat="45.31056" lon="5.89285">
        <ele>998.44</ele>
        <time>2024-11-06T14:53:37Z</time>
      </trkpt>
      <trkpt lat="45.31053" lon="5.89291">
        <ele>998.22</ele>
        <time>2024-11-06T14:53:41Z</time>
      </trkpt>
      <trkpt lat="45.31051" lon="5.89297">
        <ele>996.78</ele>
        <time>2024-11-06T14:53:45Z</time>
      </trkpt>
      <trkpt lat="45.31049" lon="5.89303">
        <ele>995.36</ele>
        <time>2024-11-06T14:53:49Z</time>
      </trkpt>
      <trkpt lat="45.31047" lon="5.89309">
        <ele>995.12</ele>
        <time>2024-11-06T14:53:53Z</time>
      </trkpt>
      <trkpt lat="45.31046" lon="5.89316">
        <ele>994.11</ele>
        <time>2024-11-06T14:53:58Z</time>
      </trkpt>
      <trkpt lat="45.31043" lon="5.89323">
        <ele>993.02</ele>
        <time>2024-11-06T14:54:03Z</time>
      </trkpt>
      <trkpt lat="45.31041" lon="5.89329">
        <ele>991.9</ele>
        <time>2024-11-06T14:54:07Z</time>
      </trkpt>
      <trkpt lat="45.31038" lon="5.89335">
        <ele>991.52</ele>
        <time>2024-11-06T14:54:11Z</time>
      </trkpt>
      <trkpt lat="45.31036" lon="5.89341">
        <ele>991.03</ele>
        <time>2024-11-06T14:54:15Z</time>
      </trkpt>
      <trkpt lat="45.31033" lon="5.89346">
        <ele>990.54</ele>
        <time>2024-11-06T14:54:19Z</time>
      </trkpt>
      <trkpt lat="45.3103" lon="5.89353">
        <ele>990.52</ele>
        <time>2024-11-06T14:54:24Z</time>
      </trkpt>
      <trkpt lat="45.31028" lon="5.89359">
        <ele>990.32</ele>
        <time>2024-11-06T14:54:28Z</time>
      </trkpt>
      <trkpt lat="45.31026" lon="5.89365">
        <ele>989.24</ele>
        <time>2024-11-06T14:54:33Z</time>
      </trkpt>
      <trkpt lat="45.31024" lon="5.89371">
        <ele>988.78</ele>
        <time>2024-11-06T14:54:37Z</time>
      </trkpt>
      <trkpt lat="45.31022" lon="5.89378">
        <ele>988.41</ele>
        <time>2024-11-06T14:54:42Z</time>
      </trkpt>
      <trkpt lat="45.31019" lon="5.89384">
        <ele>987.36</ele>
        <time>2024-11-06T14:54:47Z</time>
      </trkpt>
      <trkpt lat="45.31016" lon="5.8939">
        <ele>986.32</ele>
        <time>2024-11-06T14:54:52Z</time>
      </trkpt>
      <trkpt lat="45.31012" lon="5.89393">
        <ele>986.39</ele>
        <time>2024-11-06T14:54:58Z</time>
      </trkpt>
      <trkpt lat="45.31013" lon="5.894">
        <ele>985.69</ele>
        <time>2024-11-06T14:55:30Z</time>
      </trkpt>
      <trkpt lat="45.31016" lon="5.89412">
        <ele>985</ele>
        <time>2024-11-06T14:55:36Z</time>
      </trkpt>
      <trkpt lat="45.31016" lon="5.89419">
        <ele>984.9</ele>
        <time>2024-11-06T14:55:39Z</time>
      </trkpt>
      <trkpt lat="45.31017" lon="5.89425">
        <ele>983.24</ele>
        <time>2024-11-06T14:55:42Z</time>
      </trkpt>
      <trkpt lat="45.31018" lon="5.89432">
        <ele>982.04</ele>
        <time>2024-11-06T14:55:45Z</time>
      </trkpt>
      <trkpt lat="45.31018" lon="5.89438">
        <ele>981.46</ele>
        <time>2024-11-06T14:55:48Z</time>
      </trkpt>
      <trkpt lat="45.31017" lon="5.89445">
        <ele>981.3</ele>
        <time>2024-11-06T14:55:51Z</time>
      </trkpt>
      <trkpt lat="45.31017" lon="5.89452">
        <ele>981.36</ele>
        <time>2024-11-06T14:55:54Z</time>
      </trkpt>
      <trkpt lat="45.31017" lon="5.89461">
        <ele>981.93</ele>
        <time>2024-11-06T14:55:58Z</time>
      </trkpt>
      <trkpt lat="45.31017" lon="5.89467">
        <ele>981.58</ele>
        <time>2024-11-06T14:56:01Z</time>
      </trkpt>
      <trkpt lat="45.31017" lon="5.89475">
        <ele>981.37</ele>
        <time>2024-11-06T14:56:05Z</time>
      </trkpt>
      <trkpt lat="45.31016" lon="5.89483">
        <ele>981.96</ele>
        <time>2024-11-06T14:56:09Z</time>
      </trkpt>
      <trkpt lat="45.31016" lon="5.8949">
        <ele>982.73</ele>
        <time>2024-11-06T14:56:13Z</time>
      </trkpt>
      <trkpt lat="45.31015" lon="5.89498">
        <ele>983.06</ele>
        <time>2024-11-06T14:56:18Z</time>
      </trkpt>
      <trkpt lat="45.31015" lon="5.89505">
        <ele>983.19</ele>
        <time>2024-11-06T14:56:22Z</time>
      </trkpt>
      <trkpt lat="45.31015" lon="5.89512">
        <ele>982.43</ele>
        <time>2024-11-06T14:56:26Z</time>
      </trkpt>
      <trkpt lat="45.31015" lon="5.89518">
        <ele>982.34</ele>
        <time>2024-11-06T14:56:30Z</time>
      </trkpt>
      <trkpt lat="45.31015" lon="5.89525">
        <ele>982.27</ele>
        <time>2024-11-06T14:56:34Z</time>
      </trkpt>
      <trkpt lat="45.31015" lon="5.89532">
        <ele>982.09</ele>
        <time>2024-11-06T14:56:38Z</time>
      </trkpt>
      <trkpt lat="45.31014" lon="5.89539">
        <ele>982.42</ele>
        <time>2024-11-06T14:56:42Z</time>
      </trkpt>
      <trkpt lat="45.31014" lon="5.89545">
        <ele>982.05</ele>
        <time>2024-11-06T14:56:46Z</time>
      </trkpt>
      <trkpt lat="45.31014" lon="5.89552">
        <ele>981.81</ele>
        <time>2024-11-06T14:56:50Z</time>
      </trkpt>
      <trkpt lat="45.31014" lon="5.89559">
        <ele>982.14</ele>
        <time>2024-11-06T14:56:54Z</time>
      </trkpt>
      <trkpt lat="45.31014" lon="5.89566">
        <ele>981.76</ele>
        <time>2024-11-06T14:56:58Z</time>
      </trkpt>
      <trkpt lat="45.31014" lon="5.89573">
        <ele>981.76</ele>
        <time>2024-11-06T14:57:02Z</time>
      </trkpt>
      <trkpt lat="45.31015" lon="5.8958">
        <ele>980.95</ele>
        <time>2024-11-06T14:57:06Z</time>
      </trkpt>
      <trkpt lat="45.31018" lon="5.89587">
        <ele>979.83</ele>
        <time>2024-11-06T14:57:11Z</time>
      </trkpt>
      <trkpt lat="45.31019" lon="5.89594">
        <ele>977.57</ele>
        <time>2024-11-06T14:57:16Z</time>
      </trkpt>
      <trkpt lat="45.3102" lon="5.89602">
        <ele>976.87</ele>
        <time>2024-11-06T14:57:21Z</time>
      </trkpt>
      <trkpt lat="45.31022" lon="5.89609">
        <ele>976.11</ele>
        <time>2024-11-06T14:57:26Z</time>
      </trkpt>
      <trkpt lat="45.31023" lon="5.89616">
        <ele>975.6</ele>
        <time>2024-11-06T14:57:30Z</time>
      </trkpt>
      <trkpt lat="45.31025" lon="5.89622">
        <ele>975.45</ele>
        <time>2024-11-06T14:57:34Z</time>
      </trkpt>
      <trkpt lat="45.31026" lon="5.89628">
        <ele>975.11</ele>
        <time>2024-11-06T14:57:38Z</time>
      </trkpt>
      <trkpt lat="45.31028" lon="5.89634">
        <ele>974.71</ele>
        <time>2024-11-06T14:57:42Z</time>
      </trkpt>
      <trkpt lat="45.3103" lon="5.89641">
        <ele>974.83</ele>
        <time>2024-11-06T14:57:47Z</time>
      </trkpt>
      <trkpt lat="45.31032" lon="5.89649">
        <ele>974.72</ele>
        <time>2024-11-06T14:57:51Z</time>
      </trkpt>
      <trkpt lat="45.31034" lon="5.89657">
        <ele>974.84</ele>
        <time>2024-11-06T14:57:55Z</time>
      </trkpt>
      <trkpt lat="45.31035" lon="5.89663">
        <ele>975.17</ele>
        <time>2024-11-06T14:57:59Z</time>
      </trkpt>
      <trkpt lat="45.31037" lon="5.8967">
        <ele>976.35</ele>
        <time>2024-11-06T14:58:03Z</time>
      </trkpt>
      <trkpt lat="45.31039" lon="5.89676">
        <ele>977.83</ele>
        <time>2024-11-06T14:58:07Z</time>
      </trkpt>
      <trkpt lat="45.31041" lon="5.89685">
        <ele>977.26</ele>
        <time>2024-11-06T14:58:13Z</time>
      </trkpt>
      <trkpt lat="45.31043" lon="5.89692">
        <ele>977.18</ele>
        <time>2024-11-06T14:58:18Z</time>
      </trkpt>
      <trkpt lat="45.31044" lon="5.897">
        <ele>977.76</ele>
        <time>2024-11-06T14:58:23Z</time>
      </trkpt>
      <trkpt lat="45.31046" lon="5.89707">
        <ele>976.85</ele>
        <time>2024-11-06T14:58:28Z</time>
      </trkpt>
      <trkpt lat="45.31048" lon="5.89713">
        <ele>975.98</ele>
        <time>2024-11-06T14:58:32Z</time>
      </trkpt>
      <trkpt lat="45.31049" lon="5.89721">
        <ele>975.95</ele>
        <time>2024-11-06T14:58:37Z</time>
      </trkpt>
      <trkpt lat="45.31051" lon="5.89727">
        <ele>977.05</ele>
        <time>2024-11-06T14:58:41Z</time>
      </trkpt>
      <trkpt lat="45.31053" lon="5.89733">
        <ele>977.1</ele>
        <time>2024-11-06T14:58:45Z</time>
      </trkpt>
      <trkpt lat="45.31055" lon="5.89739">
        <ele>977.79</ele>
        <time>2024-11-06T14:58:50Z</time>
      </trkpt>
      <trkpt lat="45.31057" lon="5.89746">
        <ele>978.08</ele>
        <time>2024-11-06T14:58:54Z</time>
      </trkpt>
      <trkpt lat="45.31059" lon="5.89753">
        <ele>977.9</ele>
        <time>2024-11-06T14:58:59Z</time>
      </trkpt>
      <trkpt lat="45.31055" lon="5.89757">
        <ele>979.04</ele>
        <time>2024-11-06T14:59:06Z</time>
      </trkpt>
      <trkpt lat="45.3105" lon="5.89761">
        <ele>976.66</ele>
        <time>2024-11-06T14:59:12Z</time>
      </trkpt>
      <trkpt lat="45.31049" lon="5.89767">
        <ele>976.07</ele>
        <time>2024-11-06T14:59:17Z</time>
      </trkpt>
      <trkpt lat="45.31047" lon="5.89775">
        <ele>975.31</ele>
        <time>2024-11-06T14:59:22Z</time>
      </trkpt>
      <trkpt lat="45.31046" lon="5.89781">
        <ele>974.76</ele>
        <time>2024-11-06T14:59:27Z</time>
      </trkpt>
      <trkpt lat="45.31044" lon="5.89788">
        <ele>973.86</ele>
        <time>2024-11-06T14:59:32Z</time>
      </trkpt>
      <trkpt lat="45.31041" lon="5.89793">
        <ele>972.6</ele>
        <time>2024-11-06T14:59:37Z</time>
      </trkpt>
      <trkpt lat="45.31039" lon="5.898">
        <ele>971.21</ele>
        <time>2024-11-06T14:59:42Z</time>
      </trkpt>
      <trkpt lat="45.31037" lon="5.89806">
        <ele>970.18</ele>
        <time>2024-11-06T14:59:47Z</time>
      </trkpt>
      <trkpt lat="45.31035" lon="5.89813">
        <ele>969.78</ele>
        <time>2024-11-06T14:59:52Z</time>
      </trkpt>
      <trkpt lat="45.31032" lon="5.89819">
        <ele>971.15</ele>
        <time>2024-11-06T14:59:57Z</time>
      </trkpt>
      <trkpt lat="45.31031" lon="5.89826">
        <ele>971.4</ele>
        <time>2024-11-06T15:00:04Z</time>
      </trkpt>
      <trkpt lat="45.31027" lon="5.8983">
        <ele>970.77</ele>
        <time>2024-11-06T15:00:09Z</time>
      </trkpt>
      <trkpt lat="45.31024" lon="5.89835">
        <ele>970.23</ele>
        <time>2024-11-06T15:00:15Z</time>
      </trkpt>
      <trkpt lat="45.3102" lon="5.89841">
        <ele>969.82</ele>
        <time>2024-11-06T15:00:20Z</time>
      </trkpt>
      <trkpt lat="45.31015" lon="5.89842">
        <ele>968.14</ele>
        <time>2024-11-06T15:00:25Z</time>
      </trkpt>
      <trkpt lat="45.31011" lon="5.89844">
        <ele>966.8</ele>
        <time>2024-11-06T15:00:29Z</time>
      </trkpt>
      <trkpt lat="45.31006" lon="5.89845">
        <ele>965.86</ele>
        <time>2024-11-06T15:00:33Z</time>
      </trkpt>
      <trkpt lat="45.31002" lon="5.89847">
        <ele>964.85</ele>
        <time>2024-11-06T15:00:38Z</time>
      </trkpt>
      <trkpt lat="45.30997" lon="5.89851">
        <ele>965.15</ele>
        <time>2024-11-06T15:00:43Z</time>
      </trkpt>
      <trkpt lat="45.30992" lon="5.89853">
        <ele>968.27</ele>
        <time>2024-11-06T15:00:48Z</time>
      </trkpt>
      <trkpt lat="45.30987" lon="5.89851">
        <ele>967.08</ele>
        <time>2024-11-06T15:00:54Z</time>
      </trkpt>
      <trkpt lat="45.30983" lon="5.89847">
        <ele>969.39</ele>
        <time>2024-11-06T15:00:59Z</time>
      </trkpt>
      <trkpt lat="45.30979" lon="5.89844">
        <ele>968.6</ele>
        <time>2024-11-06T15:01:06Z</time>
      </trkpt>
      <trkpt lat="45.30976" lon="5.89851">
        <ele>964.42</ele>
        <time>2024-11-06T15:01:11Z</time>
      </trkpt>
      <trkpt lat="45.30973" lon="5.89857">
        <ele>963.15</ele>
        <time>2024-11-06T15:01:16Z</time>
      </trkpt>
      <trkpt lat="45.30969" lon="5.89853">
        <ele>964.19</ele>
        <time>2024-11-06T15:01:24Z</time>
      </trkpt>
      <trkpt lat="45.30965" lon="5.89851">
        <ele>965.25</ele>
        <time>2024-11-06T15:01:30Z</time>
      </trkpt>
      <trkpt lat="45.30962" lon="5.89855">
        <ele>965.83</ele>
        <time>2024-11-06T15:01:34Z</time>
      </trkpt>
      <trkpt lat="45.30957" lon="5.89859">
        <ele>967.2</ele>
        <time>2024-11-06T15:01:39Z</time>
      </trkpt>
      <trkpt lat="45.30953" lon="5.89859">
        <ele>968.14</ele>
        <time>2024-11-06T15:01:45Z</time>
      </trkpt>
      <trkpt lat="45.3095" lon="5.89867">
        <ele>967.21</ele>
        <time>2024-11-06T15:02:00Z</time>
      </trkpt>
      <trkpt lat="45.30952" lon="5.89873">
        <ele>960.19</ele>
        <time>2024-11-06T15:02:10Z</time>
      </trkpt>
      <trkpt lat="45.30958" lon="5.89877">
        <ele>958.73</ele>
        <time>2024-11-06T15:02:18Z</time>
      </trkpt>
      <trkpt lat="45.3096" lon="5.89884">
        <ele>959.69</ele>
        <time>2024-11-06T15:02:24Z</time>
      </trkpt>
      <trkpt lat="45.30961" lon="5.8989">
        <ele>958</ele>
        <time>2024-11-06T15:02:31Z</time>
      </trkpt>
      <trkpt lat="45.30964" lon="5.89895">
        <ele>956.18</ele>
        <time>2024-11-06T15:02:38Z</time>
      </trkpt>
      <trkpt lat="45.30965" lon="5.89902">
        <ele>953.42</ele>
        <time>2024-11-06T15:02:47Z</time>
      </trkpt>
      <trkpt lat="45.30966" lon="5.89909">
        <ele>953.1</ele>
        <time>2024-11-06T15:02:54Z</time>
      </trkpt>
    </trkseg>
  </trk>
</gpx>